Latest Weather Observations for Leigh Creek

IDS60801

Issued at 3:31 pm CST Friday 1 July 2016 (issued every 30 minutes, with the page automatically refreshed every 10 minutes)

About weather observations | Map of weather stations | Latest weather observations for SA | Other Formats
Station Details ID: 017110 Name: LEIGH CREEK AIRPORT Lat: -30.60 Lon: 138.42 Height: 258.8 m
Data from the previous 72 hours. | See also: Recent months at Leigh Creek
Date/Time
CST
Temp
°C
App
Temp
°C
Dew
Point
°C
Rel
Hum
%
Delta-T
°C
Wind Press
QNH
hPa
Press
MSL
hPa
Rain since
9am
mm
Dir  Spd
km/h
Gust
km/h
Spd
kts
Gust
kts
01/03:30pm 13.9 11.0 4.5 53 4.4 SSW 9 15 5 8 1026.0 1026.2 0.0
01/03:00pm 13.9 10.5 3.9 51 4.6 WSW 11 19 6 10 1026.1 1026.3 0.0
01/02:30pm 14.2 11.3 4.5 52 4.5 SW 9 19 5 10 1026.1 1026.3 0.0
01/02:00pm 14.2 12.2 4.2 51 4.7 S 4 9 2 5 1026.2 1026.4 0.0
01/01:30pm 13.6 10.7 4.5 54 4.2 S 9 17 5 9 1026.4 1026.6 0.0
01/01:00pm 14.0 11.5 4.6 53 4.4 SSE 7 17 4 9 1026.7 1026.9 0.0
01/12:30pm 12.9 10.2 3.8 54 4.1 SE 7 11 4 6 1027.2 1027.5 0.0
01/12:00pm 12.5 9.4 3.7 55 4.0 SE 9 15 5 8 1027.6 1027.9 0.0
01/11:30am 12.6 9.6 4.1 56 3.9 SSE 9 17 5 9 1027.9 1028.2 0.0
01/11:00am 11.5 8.5 4.0 60 3.4 S 9 13 5 7 1028.3 1028.6 0.0
01/10:30am 11.1 7.9 5.2 67 2.7 SSW 11 17 6 9 1028.5 1028.8 0.0
01/10:00am 10.4 7.7 5.4 71 2.3 S 9 13 5 7 1028.6 1028.9 0.0
01/09:30am 8.9 7.9 5.6 80 1.5 CALM 0 6 0 3 1028.4 1028.7 0.0
01/09:00am 7.7 5.5 5.3 85 1.1 ESE 6 7 3 4 1028.2 1028.4 0.6
01/08:30am 6.4 4.3 5.7 95 0.3 SSE 6 11 3 6 1027.6 1027.8 0.6
01/08:00am 4.9 2.4 4.8 99 0.0 SSW 7 9 4 5 1027.0 1027.2 0.6
01/07:30am 3.6 1.0 3.3 98 0.1 SSW 6 7 3 4 1026.5 1026.7 0.6
01/07:00am 3.8 1.3 3.5 98 0.1 SSW 6 9 3 5 1026.0 1026.1 0.4
01/06:30am 4.1 0.7 3.8 98 0.1 SSW 11 13 6 7 1025.3 1025.4 0.4
01/06:00am 5.1 2.2 4.8 98 0.1 SSW 9 11 5 6 1025.1 1025.2 0.4
01/05:30am 5.4 2.2 5.1 98 0.1 SSW 11 13 6 7 1024.7 1024.8 0.4
01/05:00am 5.0 1.7 4.4 96 0.3 SSW 11 11 6 6 1024.2 1024.4 0.4
01/04:30am 6.1 5.1 5.4 95 0.3 CALM 0 4 0 2 1024.0 1024.2 0.4
01/04:00am 6.3 4.0 5.6 95 0.3 S 7 9 4 5 1023.8 1024.0 0.4
01/03:30am 6.9 4.3 6.0 94 0.4 S 9 15 5 8 1023.4 1023.6 0.4
01/03:00am 7.2 3.9 6.3 94 0.4 SSW 13 15 7 8 1023.2 1023.4 0.4
01/02:30am 7.7 4.4 6.5 92 0.6 SSW 13 15 7 8 1023.1 1023.3 0.4
01/02:00am 8.3 4.3 6.8 90 0.7 SSW 17 20 9 11 1023.0 1023.2 0.4
01/01:30am 9.0 4.7 7.1 88 0.9 SSW 19 24 10 13 1023.1 1023.3 0.4
01/01:00am 9.3 6.2 8.8 97 0.2 SSW 15 19 8 10 1023.0 1023.2 0.4
01/12:30am 9.6 7.3 9.0 96 0.3 S 11 13 6 7 1023.1 1023.3 0.4
01/12:00am 9.8 7.5 8.9 94 0.4 SSW 11 13 6 7 1022.9 1023.1 0.4
 
Date/Time
CST
Temp
°C
App
Temp
°C
Dew
Point
°C
Rel
Hum
%
Delta-T
°C
Wind Press
QNH
hPa
Press
MSL
hPa
Rain since
9am
mm
Dir  Spd
km/h
Gust
km/h
Spd
kts
Gust
kts
30/11:30pm 10.2 8.3 9.1 93 0.5 S 9 13 5 7 1022.8 1022.9 0.4
30/11:00pm 10.4 7.9 9.6 95 0.4 S 13 20 7 11 1022.8 1022.9 0.4
30/10:30pm 10.5 6.7 9.7 95 0.4 S 20 28 11 15 1022.8 1022.9 0.2
30/10:00pm 11.0 6.7 9.4 90 0.8 SSW 22 30 12 16 1022.5 1022.6 0.2
30/09:30pm 12.3 6.3 8.6 78 1.9 SSW 30 41 16 22 1022.0 1022.1 0.2
30/09:00pm 12.9 7.6 8.6 75 2.2 SSW 26 41 14 22 1021.7 1021.8 0.2
30/08:30pm 13.4 9.0 7.6 68 2.9 SSW 20 28 11 15 1021.5 1021.6 0.2
30/08:00pm 14.2 9.7 6.8 61 3.6 SW 20 32 11 17 1020.9 1021.0 0.2
30/07:30pm 14.5 9.4 5.8 56 4.2 WSW 22 33 12 18 1020.4 1020.6 0.2
30/07:00pm 14.1 10.0 6.0 58 3.9 SW 17 22 9 12 1020.1 1020.3 0.2
30/06:30pm 14.0 9.5 5.9 58 3.9 WSW 19 24 10 13 1019.7 1019.9 0.2
30/06:00pm 14.3 10.2 6.4 59 3.8 WSW 17 24 9 13 1019.3 1019.4 0.2
30/05:30pm 14.6 10.0 6.4 58 4.0 SW 20 28 11 15 1018.7 1018.8 0.2
30/05:00pm 15.3 10.4 6.8 57 4.2 SW 22 30 12 16 1018.6 1018.7 0.2
30/04:30pm 16.0 11.2 7.2 56 4.4 SW 22 33 12 18 1018.2 1018.3 0.2
30/04:00pm 16.6 10.7 7.5 55 4.6 WSW 28 35 15 19 1017.8 1017.9 0.2
30/03:30pm 16.2 11.7 8.4 60 4.0 SW 22 32 12 17 1017.8 1017.9 0.2
30/03:00pm 15.8 12.6 8.5 62 3.8 SW 15 24 8 13 1017.8 1017.9 0.2
30/02:30pm 16.2 12.0 8.2 59 4.1 WSW 20 30 11 16 1017.8 1017.9 0.2
30/02:00pm 16.2 12.1 7.9 58 4.2 WSW 19 28 10 15 1017.7 1017.8 0.2
30/01:30pm 15.2 11.3 7.0 58 4.1 WSW 17 28 9 15 1018.1 1018.2 0.2
30/01:00pm 14.9 10.7 7.5 61 3.7 WSW 19 26 10 14 1018.4 1018.5 0.2
30/12:30pm 14.7 10.8 7.3 61 3.7 W 17 26 9 14 1018.5 1018.6 0.2
30/12:00pm 13.9 10.3 6.7 62 3.5 W 15 22 8 12 1019.1 1019.2 0.0
30/11:30am 13.3 9.3 6.6 64 3.3 W 17 26 9 14 1019.6 1019.8 0.0
30/11:00am 12.0 8.4 6.9 71 2.5 N 15 19 8 10 1020.0 1020.2 0.0
30/10:30am 10.2 5.6 5.8 74 2.0 NNW 19 22 10 12 1020.3 1020.5 0.0
30/10:00am 9.0 6.0 6.1 82 1.4 NNW 11 17 6 9 1020.9 1021.0 0.0
30/09:30am 8.6 5.3 6.4 86 1.0 NNW 13 15 7 8 1020.8 1020.9 0.0
30/09:00am 7.5 4.6 6.3 92 0.6 N 11 15 6 8 1020.3 1020.5 0.2
30/08:30am 7.0 3.8 5.2 88 0.8 N 11 15 6 8 1020.2 1020.4 0.2
30/08:00am 6.3 3.1 4.9 91 0.6 NNW 11 13 6 7 1019.9 1020.1 0.2
30/07:30am 4.4 0.2 3.7 95 0.3 NNW 15 17 8 9 1019.5 1019.6 0.2
30/07:00am 3.9 -0.1 2.9 93 0.4 NNW 13 17 7 9 1019.3 1019.4 0.2
30/06:30am 4.2 0.6 3.0 92 0.5 NNW 11 13 6 7 1019.3 1019.4 0.2
30/06:00am 4.6 1.5 3.4 92 0.5 NNW 9 11 5 6 1019.1 1019.2 0.2
30/05:30am 4.6 1.5 3.6 93 0.4 NNW 9 11 5 6 1018.9 1019.0 0.2
30/05:00am 4.4 2.2 3.4 93 0.4 NNW 4 9 2 5 1019.0 1019.1 0.2
30/04:30am 3.9 0.2 2.6 91 0.5 NNE 11 13 6 7 1018.8 1018.9 0.2
30/04:00am 4.2 1.0 3.0 92 0.5 NNE 9 11 5 6 1018.7 1018.8 0.2
30/03:30am 3.8 0.9 2.6 92 0.5 NNE 7 9 4 5 1018.9 1019.0 0.2
30/03:00am 4.7 1.5 3.2 90 0.6 NNE 9 11 5 6 1019.1 1019.2 0.2
30/02:30am 4.9 1.8 3.4 90 0.6 NNE 9 9 5 5 1019.4 1019.5 0.2
30/02:00am 4.9 2.3 3.4 90 0.6 NNE 6 7 3 4 1019.7 1019.9 0.2
30/01:30am 4.8 1.3 3.3 90 0.6 NNE 11 13 6 7 1019.8 1020.0 0.2
30/01:00am 5.4 1.9 3.4 87 0.8 N 11 17 6 9 1020.0 1020.2 0.2
30/12:30am 6.1 0.9 3.8 85 1.0 NNW 20 22 11 12 1019.8 1020.0 0.2
30/12:00am 6.5 1.5 3.8 83 1.2 NNW 19 20 10 11 1020.2 1020.4 0.2
 
Date/Time
CST
Temp
°C
App
Temp
°C
Dew
Point
°C
Rel
Hum
%
Delta-T
°C
Wind Press
QNH
hPa
Press
MSL
hPa
Rain since
9am
mm
Dir  Spd
km/h
Gust
km/h
Spd
kts
Gust
kts
29/11:30pm 7.1 2.2 3.9 80 1.4 NNW 19 22 10 12 1020.3 1020.5 0.2
29/11:00pm 7.6 2.7 4.0 78 1.6 NNW 19 22 10 12 1020.7 1020.8 0.2
29/10:30pm 7.7 2.8 3.9 77 1.7 NNW 19 20 10 11 1020.8 1020.9 0.2
29/10:00pm 7.3 3.2 4.1 80 1.4 NNW 15 19 8 10 1020.8 1020.9 0.2
29/09:30pm 7.6 4.2 4.0 78 1.6 WNW 11 17 6 9 1020.9 1021.0 0.2
29/09:00pm 7.7 3.6 4.1 78 1.6 N 15 19 8 10 1020.7 1020.8 0.2
29/08:30pm 7.7 4.4 4.3 79 1.5 NNW 11 15 6 8 1020.9 1021.0 0.2
29/08:00pm 8.2 4.9 4.4 77 1.7 NNW 11 13 6 7 1021.0 1021.1 0.2
29/07:30pm 8.2 5.6 4.4 77 1.7 NNW 7 9 4 5 1021.0 1021.1 0.2
29/07:00pm 8.4 5.5 4.6 77 1.7 NW 9 11 5 6 1020.8 1020.9 0.2
29/06:30pm 9.3 6.0 4.5 72 2.2 N 11 13 6 7 1020.8 1020.9 0.2
29/06:00pm 11.1 6.1 4.6 64 3.0 N 20 28 11 15 1020.4 1020.6 0.2
29/05:30pm 11.5 6.1 4.3 61 3.3 N 22 28 12 15 1020.3 1020.5 0.2
29/05:00pm 12.5 5.9 4.0 56 3.9 N 28 39 15 21 1020.7 1020.8 0.2
29/04:30pm 13.3 7.5 4.2 54 4.2 N 24 32 13 17 1021.0 1021.1 0.2
29/04:00pm 13.7 7.1 4.0 52 4.5 N 28 39 15 21 1021.2 1021.3 0.2
29/03:30pm 13.6 6.1 4.7 55 4.2 N 33 46 18 25 1021.5 1021.6 0.2
29/03:00pm 13.9 6.1 4.8 54 4.3 N 35 46 19 25 1021.9 1022.0 0.2
29/02:30pm 13.6 6.4 5.0 56 4.0 N 32 43 17 23 1022.1 1022.2 0.0
29/02:00pm 14.1 6.7 4.9 54 4.3 N 33 46 18 25 1022.5 1022.6 0.0
29/01:30pm 13.0 4.7 4.4 56 4.0 N 37 46 20 25 1023.1 1023.3 0.0
29/01:00pm 13.3 5.6 5.2 58 3.8 N 35 46 19 25 1023.7 1023.9 0.0
29/12:30pm 12.4 5.0 5.1 61 3.4 N 33 48 18 26 1024.5 1024.7 0.0
29/12:00pm 13.0 5.7 5.4 60 3.6 N 33 44 18 24 1025.2 1025.3 0.0
29/11:30am 12.6 4.4 4.8 59 3.6 N 37 50 20 27 1025.6 1025.7 0.0
29/11:00am 12.3 4.8 6.4 67 2.8 N 35 46 19 25 1025.8 1025.9 0.0
29/10:30am 12.0 5.1 6.5 69 2.6 N 32 39 17 21 1026.2 1026.4 0.0
29/10:00am 11.5 5.0 6.4 71 2.4 N 30 41 16 22 1026.3 1026.5 0.0
29/09:30am 10.8 5.0 6.2 73 2.2 N 26 35 14 19 1026.6 1026.8 0.0
29/09:00am 10.0 5.3 6.2 77 1.8 N 20 28 11 15 1026.7 1026.9 0.0
29/08:30am 9.0 4.5 6.1 82 1.3 N 19 28 10 15 1026.8 1027.0 0.0
29/08:00am 7.0 3.9 5.6 91 0.6 N 11 19 6 10 1026.5 1026.7 0.0
29/07:30am 5.1 3.4 4.1 93 0.4 NNE 2 7 1 4 1026.5 1026.7 0.0
29/07:00am 5.0 3.3 3.8 92 0.5 N 2 7 1 4 1026.3 1026.5 0.0
29/06:30am 5.5 2.9 4.3 92 0.5 N 7 11 4 6 1026.1 1026.2 0.0
29/06:00am 5.5 3.0 4.0 90 0.6 N 6 9 3 5 1026.0 1026.1 0.0
29/05:30am 5.8 4.4 3.8 87 0.9 CALM 0 7 0 4 1026.0 1026.1 0.0
29/05:00am 6.5 4.5 4.3 86 1.0 N 4 9 2 5 1026.0 1026.1 0.0
29/04:30am 5.9 4.1 3.7 86 0.9 N 2 7 1 4 1026.1 1026.2 0.0
29/04:00am 6.6 4.2 4.1 84 1.1 NNW 6 11 3 6 1026.2 1026.4 0.0
29/03:30am 6.7 4.3 4.4 85 1.0 ENE 6 9 3 5 1026.1 1026.2 0.0
29/03:00am 5.9 4.2 4.2 89 0.7 ENE 2 9 1 5 1026.1 1026.2 0.0
29/02:30am 5.0 3.6 3.5 90 0.6 CALM 0 6 0 3 1026.1 1026.2 0.0
29/02:00am 4.7 2.8 3.0 89 0.7 ENE 2 7 1 4 1026.3 1026.5 0.0
29/01:30am 5.7 2.6 3.5 86 0.9 ENE 9 11 5 6 1026.3 1026.5 0.0
29/01:00am 5.5 3.0 3.8 89 0.7 ENE 6 9 3 5 1026.5 1026.7 0.0
29/12:30am 6.1 2.7 3.9 86 0.9 ENE 11 13 6 7 1026.7 1026.9 0.0
29/12:00am 6.0 2.2 4.0 87 0.9 ENE 13 13 7 7 1026.7 1026.9 0.0
 
Date/Time
CST
Temp
°C
App
Temp
°C
Dew
Point
°C
Rel
Hum
%
Delta-T
°C
Wind Press
QNH
hPa
Press
MSL
hPa
Rain since
9am
mm
Dir  Spd
km/h
Gust
km/h
Spd
kts
Gust
kts
28/11:30pm 5.3 2.5 3.3 87 0.8 ENE 7 9 4 5 1026.9 1027.1 0.0
28/11:00pm 5.9 4.2 4.2 89 0.7 E 2 6 1 3 1027.0 1027.2 0.0
28/10:30pm 6.0 4.3 4.0 87 0.9 E 2 7 1 4 1026.9 1027.1 0.0
28/10:00pm 6.3 5.1 4.5 88 0.8 CALM 0 0 0 0 1027.2 1027.4 0.0
28/09:30pm 6.5 5.3 4.5 87 0.9 CALM 0 6 0 3 1027.2 1027.4 0.0
28/09:00pm 7.4 6.2 4.5 82 1.3 CALM 0 0 0 0 1027.4 1027.6 0.0
28/08:30pm 7.2 6.1 4.9 85 1.0 CALM 0 0 0 0 1027.5 1027.7 0.0
28/08:00pm 7.2 4.9 4.7 84 1.1 NNE 6 7 3 4 1027.2 1027.4 0.0
28/07:30pm 8.6 7.6 5.4 80 1.5 CALM 0 0 0 0 1027.2 1027.4 0.0
28/07:00pm 9.6 8.6 5.4 75 1.9 CALM 0 0 0 0 1027.0 1027.2 0.0
28/06:30pm 9.7 8.6 5.1 73 2.1 CALM 0 0 0 0 1027.0 1027.2 0.0
28/06:00pm 10.4 7.7 5.6 72 2.2 NNE 9 9 5 5 1026.7 1026.9 0.0
28/05:30pm 11.5 8.4 5.4 66 2.8 NNE 11 13 6 7 1026.6 1026.8 0.0
28/05:00pm 13.3 9.4 5.2 58 3.8 N 15 20 8 11 1026.5 1026.7 0.0
28/04:30pm 14.1 9.7 4.7 53 4.4 N 17 20 9 11 1026.7 1026.9 0.0
28/04:00pm 14.2 9.8 4.8 53 4.4 N 17 24 9 13 1026.8 1027.0 0.0

Other Formats:

Comma delimited format used in spreadsheet applications
http://www.bom.gov.au/fwo/IDS60801/IDS60801.94674.axf

JavaScript Object Notation format (JSON) in row-major order
http://www.bom.gov.au/fwo/IDS60801/IDS60801.94674.json